Time;durP1;ratioP1;P1;durP2;ratioP2;P2;SDS_P1;SDS_P2;PMS_P1;PMS_P2;Temp;Humidity;BMP_temperature;BMP_pressure;BME280_temperature;BME280_humidity;BME280_pressure;Samples;Min_cycle;Max_cycle;Signal;HPM_P1;HPM_P2
2022/07/24 00:02:21;;;;;;;6.90;6.40;;;;;;;21.35;100.00;96671.50;5035106;27;101826;-63
2022/07/24 00:04:50;;;;;;;7.70;7.00;;;;;;;21.29;100.00;96676.25;5048982;27;101949;-63
2022/07/24 00:07:17;;;;;;;9.67;6.97;;;;;;;21.22;100.00;96678.63;5046858;27;102314;-63
2022/07/24 00:09:44;;;;;;;8.43;7.10;;;;;;;21.17;100.00;96686.88;5033807;27;102577;-63
2022/07/24 00:12:11;;;;;;;7.17;6.57;;;;;;;21.09;100.00;96686.81;5053148;27;102088;-63
2022/07/24 00:14:43;;;;;;;7.47;6.53;;;;;;;21.08;100.00;96679.81;5050157;27;102673;-63
2022/07/24 00:17:10;;;;;;;7.60;6.90;;;;;;;21.06;100.00;96679.31;5049684;27;101998;-63
2022/07/24 00:19:39;;;;;;;6.80;6.20;;;;;;;21.10;100.00;96669.47;5032370;27;102926;-63
2022/07/24 00:22:06;;;;;;;7.67;6.80;;;;;;;21.17;100.00;96669.81;5028905;27;105429;-63
2022/07/24 00:24:38;;;;;;;7.03;6.40;;;;;;;21.23;100.00;96661.28;5029534;28;101933;-63
2022/07/24 00:27:14;;;;;;;7.13;6.23;;;;;;;21.31;100.00;96667.84;5031101;27;102446;-63
2022/07/24 00:29:41;;;;;;;9.23;7.20;;;;;;;21.29;100.00;96667.34;5028970;27;105807;-64
2022/07/24 00:32:08;;;;;;;8.00;7.20;;;;;;;21.14;100.00;96673.94;5032790;27;101891;-63
2022/07/24 00:35:00;;;;;;;8.43;6.70;;;;;;;21.09;100.00;96668.66;5053578;27;102368;-64
2022/07/24 00:37:27;;;;;;;7.20;6.60;;;;;;;20.91;100.00;96675.09;5050458;27;101864;-63
2022/07/24 00:39:54;;;;;;;7.83;7.03;;;;;;;20.85;100.00;96679.00;5045885;27;102606;-63
2022/07/24 00:42:21;;;;;;;6.83;6.13;;;;;;;20.97;100.00;96681.16;5042379;27;103212;-63
2022/07/24 00:44:48;;;;;;;7.30;6.60;;;;;;;21.03;100.00;96679.94;5050835;27;101875;-63
2022/07/24 00:47:16;;;;;;;7.73;6.93;;;;;;;21.20;100.00;96674.63;5048412;27;106820;-63
2022/07/24 00:49:43;;;;;;;8.30;7.10;;;;;;;21.20;100.00;96674.63;5048861;27;105711;-63
2022/07/24 00:52:12;;;;;;;8.33;7.53;;;;;;;21.12;100.00;96672.66;5048761;27;101920;-63
2022/07/24 00:55:06;;;;;;;7.57;6.87;;;;;;;21.09;100.00;96670.59;5049387;27;105580;-63
2022/07/24 00:57:54;;;;;;;7.67;7.00;;;;;;;21.19;100.00;96673.03;5047349;27;102854;-63
2022/07/24 01:00:22;;;;;;;7.57;6.70;;;;;;;21.00;100.00;96664.31;5029061;27;105949;-63
2022/07/24 01:02:54;;;;;;;7.80;7.10;;;;;;;21.07;100.00;96665.47;5028263;27;105708;-63
2022/07/24 01:05:21;;;;;;;7.50;6.80;;;;;;;21.17;100.00;96667.94;5030390;28;101688;-63
2022/07/24 01:07:50;;;;;;;7.70;7.00;;;;;;;21.24;100.00;96659.34;5038502;27;102323;-63
2022/07/24 01:10:17;;;;;;;7.47;6.83;;;;;;;21.23;100.00;96661.28;5049762;27;102574;-63
2022/07/24 01:12:44;;;;;;;7.50;6.83;;;;;;;21.24;100.00;96668.28;5050297;27;102078;-63
2022/07/24 01:15:13;;;;;;;8.23;6.83;;;;;;;21.33;100.00;96666.41;5044555;27;102201;-63
2022/07/24 01:17:42;;;;;;;7.03;6.33;;;;;;;21.44;100.00;96672.34;5043006;27;103112;-63
2022/07/24 01:20:11;;;;;;;6.97;6.27;;;;;;;21.42;100.00;96661.03;5053824;27;102394;-63
2022/07/24 01:22:40;;;;;;;6.27;5.67;;;;;;;21.42;100.00;96658.34;5051421;27;105347;-63
2022/07/24 01:25:08;;;;;;;6.67;6.17;;;;;;;21.36;100.00;96657.66;5052558;27;102392;-63
2022/07/24 01:27:41;;;;;;;7.73;6.93;;;;;;;21.38;100.00;96655.47;5047761;27;102881;-63
2022/07/24 01:30:10;;;;;;;6.70;6.20;;;;;;;21.35;100.00;96652.56;5033169;28;103197;-63
2022/07/24 01:32:37;;;;;;;6.97;6.30;;;;;;;21.30;100.00;96656.22;5049689;27;101879;-63
2022/07/24 01:35:05;;;;;;;6.37;5.77;;;;;;;21.31;100.00;96657.00;5052396;27;104058;-63
2022/07/24 01:37:32;;;;;;;7.70;6.60;;;;;;;21.25;100.00;96655.56;5047309;27;102670;-64
2022/07/24 01:40:01;;;;;;;9.57;7.10;;;;;;;21.06;100.00;96654.97;5035562;28;101956;-63
2022/07/24 01:42:28;;;;;;;7.50;6.80;;;;;;;21.01;100.00;96663.22;5051523;27;105845;-63
2022/07/24 01:44:55;;;;;;;9.10;7.23;;;;;;;20.95;100.00;96659.84;5033483;28;101838;-63
2022/07/24 01:47:22;;;;;;;7.07;6.47;;;;;;;20.87;100.00;96657.06;5035224;27;105586;-63
2022/07/24 01:49:49;;;;;;;8.83;7.37;;;;;;;20.79;100.00;96650.50;5052993;27;101689;-64
2022/07/24 01:52:17;;;;;;;7.83;7.17;;;;;;;20.78;100.00;96650.78;5036347;27;102301;-63
2022/07/24 01:54:44;;;;;;;8.20;7.40;;;;;;;20.89;100.00;96657.56;5033054;28;102387;-63
2022/07/24 01:57:30;;;;;;;7.93;7.13;;;;;;;20.95;100.00;96649.03;5054764;27;105512;-63
2022/07/24 01:59:57;;;;;;;8.03;7.27;;;;;;;20.80;100.00;96656.69;5051992;27;101847;-63
2022/07/24 02:02:24;;;;;;;8.60;6.77;;;;;;;20.68;100.00;96654.56;5039899;27;102759;-63
2022/07/24 02:04:59;;;;;;;9.30;7.20;;;;;;;20.73;100.00;96657.13;5032926;28;102201;-63
2022/07/24 02:07:26;;;;;;;8.20;7.50;;;;;;;20.80;100.00;96648.56;5034339;27;105190;-63
2022/07/24 02:09:53;;;;;;;8.43;7.73;;;;;;;20.78;100.00;96650.78;5051261;27;105995;-63
2022/07/24 02:12:20;;;;;;;9.33;8.60;;;;;;;20.64;100.00;96653.56;5052697;27;101807;-63
2022/07/24 02:14:51;;;;;;;8.07;7.43;;;;;;;20.79;100.00;96655.91;5041650;27;102358;-63
2022/07/24 02:17:18;;;;;;;9.60;8.80;;;;;;;20.59;100.00;96650.97;5032468;27;104568;-63
2022/07/24 02:19:45;;;;;;;9.13;8.23;;;;;;;20.59;100.00;96650.19;5052963;27;101842;-63
2022/07/24 02:22:13;;;;;;;8.17;7.50;;;;;;;20.71;100.00;96655.84;5050347;27;105176;-63
2022/07/24 02:24:45;;;;;;;8.13;7.43;;;;;;;20.74;100.00;96649.81;5034182;28;105435;-63
2022/07/24 02:27:28;;;;;;;8.30;7.60;;;;;;;20.85;100.00;96651.97;5030975;27;104061;-63
2022/07/24 02:29:56;;;;;;;8.17;7.53;;;;;;;20.80;100.00;96657.50;5052309;27;103102;-63
2022/07/24 02:32:24;;;;;;;8.73;7.93;;;;;;;20.75;100.00;96652.22;5050936;27;101861;-64
2022/07/24 02:38:14;;;;;;;8.80;7.90;;;;;;;20.70;100.00;96648.84;5000501;28;105593;-63
2022/07/24 02:40:42;;;;;;;10.97;7.37;;;;;;;20.74;100.00;96649.81;5011019;28;102032;-63
2022/07/24 02:43:17;;;;;;;7.47;6.77;;;;;;;20.74;100.00;96655.22;5010678;28;105124;-63
2022/07/24 02:45:46;;;;;;;8.63;7.80;;;;;;;20.76;100.00;96647.63;5010403;28;105785;-63
2022/07/24 02:48:13;;;;;;;8.90;8.20;;;;;;;20.57;100.00;96647.78;5004638;28;102570;-63
2022/07/24 02:50:40;;;;;;;9.33;8.37;;;;;;;20.35;100.00;96646.97;4991693;28;103172;-63
2022/07/24 02:53:08;;;;;;;8.43;7.73;;;;;;;20.32;100.00;96648.38;4999090;28;102101;-63
2022/07/24 02:55:35;;;;;;;8.53;7.73;;;;;;;20.36;100.00;96653.97;5011938;28;104516;-63
2022/07/24 02:58:13;;;;;;;8.27;7.57;;;;;;;20.44;100.00;96648.63;5003569;28;103190;-63
2022/07/24 03:00:40;;;;;;;8.30;7.60;;;;;;;20.29;100.00;96664.41;4997671;28;103200;-63
2022/07/24 03:06:31;;;;;;;8.90;7.03;;;;;;;20.42;100.00;96666.25;5010926;28;101746;-63
2022/07/24 03:08:58;;;;;;;8.57;7.87;;;;;;;20.29;100.00;96667.09;4997654;28;101904;-63
2022/07/24 03:11:25;;;;;;;8.33;7.63;;;;;;;20.25;100.00;96669.63;4994942;28;102496;-63
2022/07/24 03:13:56;;;;;;;8.57;7.73;;;;;;;20.22;100.00;96664.81;4990438;28;101975;-63
2022/07/24 03:16:24;;;;;;;7.90;7.23;;;;;;;20.28;100.00;96676.31;4992135;28;102322;-63
2022/07/24 03:18:51;;;;;;;8.87;8.07;;;;;;;20.24;100.00;96668.03;5001141;28;105366;-63
2022/07/24 03:21:19;;;;;;;8.53;7.80;;;;;;;20.29;100.00;96670.63;5010436;28;101986;-64
2022/07/24 03:23:48;;;;;;;8.50;7.83;;;;;;;20.28;100.00;96674.41;4999012;28;105500;-64
2022/07/24 03:26:20;;;;;;;8.63;7.83;;;;;;;20.37;100.00;96675.28;4990919;28;102646;-63
2022/07/24 03:28:47;;;;;;;9.20;8.50;;;;;;;20.23;100.00;96669.13;5004538;28;102043;-63
2022/07/24 03:31:14;;;;;;;9.03;8.23;;;;;;;20.21;100.00;96676.72;5012833;28;103678;-63
2022/07/24 03:33:56;;;;;;;8.80;8.00;;;;;;;20.26;100.00;96675.81;5010950;28;101805;-63
2022/07/24 03:36:23;;;;;;;8.87;8.07;;;;;;;20.17;100.00;96672.25;5020593;27;102987;-64
2022/07/24 03:38:51;;;;;;;9.00;8.20;;;;;;;20.23;100.00;96677.25;5037215;27;102550;-63
2022/07/24 03:41:19;;;;;;;9.27;8.37;;;;;;;20.32;100.00;96672.69;5031509;28;101889;-63
2022/07/24 03:44:13;;;;;;;8.83;8.13;;;;;;;20.30;100.00;96677.59;5031445;27;102355;-63
2022/07/24 03:46:40;;;;;;;9.70;8.87;;;;;;;20.21;100.00;96681.34;5029204;28;105754;-63
2022/07/24 03:49:07;;;;;;;9.37;8.37;;;;;;;20.14;100.00;96683.63;5032484;27;101904;-63
2022/07/24 03:51:35;;;;;;;8.63;7.93;;;;;;;20.22;100.00;96680.22;5031476;28;102344;-63
2022/07/24 03:54:09;;;;;;;8.87;8.07;;;;;;;20.21;100.00;96679.44;5051349;27;105220;-63
2022/07/24 03:56:44;;;;;;;8.77;7.97;;;;;;;20.36;100.00;96679.09;5035725;27;102336;-63
2022/07/24 03:59:11;;;;;;;8.47;7.73;;;;;;;20.28;100.00;96685.19;5048999;27;103208;-63
2022/07/24 04:01:39;;;;;;;8.53;7.83;;;;;;;20.21;100.00;96686.75;5050774;27;102605;-63
2022/07/24 04:04:06;;;;;;;9.07;8.17;;;;;;;20.21;100.00;96687.53;5050040;27;104065;-63
2022/07/24 04:06:34;;;;;;;8.70;8.00;;;;;;;20.09;100.00;96679.16;5049338;27;102758;-63
2022/07/24 04:09:03;;;;;;;9.43;8.53;;;;;;;20.19;100.00;96686.22;5034244;27;101844;-63
2022/07/24 04:11:32;;;;;;;9.17;8.27;;;;;;;20.15;100.00;96683.34;5032176;27;102309;-63
2022/07/24 04:14:05;;;;;;;8.90;8.10;;;;;;;20.20;100.00;96683.22;5030274;27;102646;-63
2022/07/24 04:16:32;;;;;;;8.40;7.70;;;;;;;20.23;100.00;96682.63;5034728;28;101776;-63
2022/07/24 04:18:59;;;;;;;9.57;8.17;;;;;;;20.29;100.00;96691.41;5046426;27;102606;-64
2022/07/24 04:21:27;;;;;;;9.70;7.50;;;;;;;20.36;100.00;96680.97;5051405;27;101948;-63
2022/07/24 04:23:54;;;;;;;8.60;7.80;;;;;;;20.38;100.00;96695.00;5035517;27;102333;-63
2022/07/24 04:26:59;;;;;;;8.80;7.93;;;;;;;20.46;100.00;96691.56;5028971;28;105382;-63
2022/07/24 04:29:28;;;;;;;8.70;7.87;;;;;;;20.36;100.00;96686.38;5048747;27;101987;-63
2022/07/24 04:31:55;;;;;;;8.53;7.83;;;;;;;20.21;100.00;96697.56;5050717;27;103022;-63
2022/07/24 04:35:06;;;;;;;7.63;6.93;;;;;;;20.52;100.00;96701.16;5048816;27;104159;-63
2022/07/24 04:37:33;;;;;;;7.53;6.77;;;;;;;20.52;100.00;96701.16;5046216;27;101964;-63
2022/07/24 04:40:00;;;;;;;8.83;7.13;;;;;;;20.68;100.00;96694.28;5031996;28;105537;-63
2022/07/24 04:42:27;;;;;;;7.40;6.80;;;;;;;20.80;100.00;96692.63;5030245;27;101963;-64
2022/07/24 04:45:01;;;;;;;8.00;7.20;;;;;;;20.82;100.00;96693.13;5041748;27;102868;-63
2022/07/24 04:47:28;;;;;;;8.40;7.70;;;;;;;20.80;100.00;96698.03;5030127;28;103285;-63
2022/07/24 04:49:56;;;;;;;7.60;7.03;;;;;;;20.70;100.00;96698.28;5032576;27;101884;-63
2022/07/24 04:52:23;;;;;;;8.33;7.63;;;;;;;20.87;100.00;96692.22;5050806;27;102738;-63
2022/07/24 04:54:51;;;;;;;7.47;6.87;;;;;;;20.94;100.00;96692.59;5049430;27;102653;-63
2022/07/24 05:00:42;;;;;;;9.00;8.07;;;;;;;20.56;100.00;96707.53;5028948;27;105167;-63
2022/07/24 05:03:13;;;;;;;7.80;7.10;;;;;;;20.85;100.00;96699.81;5048741;27;105158;-63
2022/07/24 05:05:41;;;;;;;9.20;8.37;;;;;;;20.70;100.00;96706.38;5056345;27;104313;-64
2022/07/24 05:08:08;;;;;;;8.30;7.60;;;;;;;20.98;100.00;96705.19;5040696;27;106031;-63
2022/07/24 05:10:35;;;;;;;8.00;7.30;;;;;;;21.20;100.00;96705.16;5047426;27;101955;-64
2022/07/24 05:13:04;;;;;;;8.87;8.17;;;;;;;21.21;100.00;96703.28;5050397;27;102674;-63
2022/07/24 05:15:31;;;;;;;9.03;8.23;;;;;;;21.16;100.00;96701.50;5048173;27;106892;-63
2022/07/24 05:18:00;;;;;;;9.70;8.80;;;;;;;20.94;100.00;96706.94;5039103;27;101914;-63
2022/07/24 05:20:27;;;;;;;8.37;7.67;;;;;;;21.14;100.00;96708.31;5062269;27;103575;-64
2022/07/24 05:23:10;;;;;;;9.70;8.87;;;;;;;21.12;100.00;96710.53;5028296;28;105776;-63
2022/07/24 05:25:37;;;;;;;9.77;8.90;;;;;;;21.28;100.00;96715.25;5044474;27;101767;-63
2022/07/24 05:28:13;;;;;;;9.80;8.80;;;;;;;21.30;100.00;96713.03;5037872;27;103259;-63
2022/07/24 05:30:40;;;;;;;9.67;8.77;;;;;;;21.48;100.00;96716.63;5028680;28;101897;-63
2022/07/24 05:33:17;;;;;;;9.07;8.33;;;;;;;21.42;100.00;96721.34;5028227;27;105726;-63
2022/07/24 05:35:43;;;;;;;9.17;8.33;;;;;;;21.67;100.00;96717.16;5029664;28;102624;-64
2022/07/24 05:38:11;;;;;;;9.17;8.37;;;;;;;21.80;100.00;96710.91;5028707;27;102117;-63
2022/07/24 05:40:38;;;;;;;9.30;8.40;;;;;;;21.98;100.00;96712.53;5029823;28;102461;-63
2022/07/24 05:43:05;;;;;;;8.90;8.17;;;;;;;21.97;100.00;96717.16;5030358;27;102558;-63
2022/07/24 05:45:32;;;;;;;9.13;8.13;;;;;;;22.03;100.00;96715.09;5033481;28;101900;-64
2022/07/24 05:47:59;;;;;;;9.33;8.50;;;;;;;22.02;100.00;96710.81;5028861;27;105589;-64
2022/07/24 05:50:28;;;;;;;8.00;7.30;;;;;;;22.19;100.00;96708.13;5029721;28;101873;-63
2022/07/24 05:53:26;;;;;;;8.60;7.80;;;;;;;22.14;100.00;96711.00;5029601;27;103740;-64
2022/07/24 05:59:15;;;;;;;8.93;8.03;;;;;;;22.59;100.00;96704.22;5030868;27;103127;-63
2022/07/24 06:01:43;;;;;;;9.00;8.10;;;;;;;22.45;100.00;96706.28;5050132;27;102466;-66
2022/07/24 06:04:24;;;;;;;9.33;7.70;;;;;;;22.46;100.00;96703.25;5051205;27;105507;-63
2022/07/24 06:06:53;;;;;;;8.87;8.13;;;;;;;22.48;100.00;96695.63;5053318;27;101772;-63
2022/07/24 06:09:20;;;;;;;8.00;7.20;;;;;;;22.52;100.00;96690.34;5055834;27;104041;-63
2022/07/24 06:11:47;;;;;;;8.40;7.57;;;;;;;22.38;100.00;96700.50;5049734;27;102027;-63
2022/07/24 06:17:37;;;;;;;8.23;7.53;;;;;;;22.21;100.00;96697.78;5032392;28;103092;-63
2022/07/24 06:20:06;;;;;;;7.67;7.00;;;;;;;22.03;100.00;96698.84;5031437;28;102000;-62
2022/07/24 06:22:34;;;;;;;8.13;7.30;;;;;;;22.23;100.00;96693.63;5042945;27;103346;-63
2022/07/24 06:28:23;;;;;;;7.60;6.90;;;;;;;22.46;100.00;96694.34;5051541;27;101888;-63
2022/07/24 06:30:51;;;;;;;8.10;7.30;;;;;;;22.54;100.00;96701.66;5051425;27;105278;-63
2022/07/24 06:33:25;;;;;;;7.50;6.80;;;;;;;22.84;100.00;96703.44;5055280;27;103198;-63
2022/07/24 06:35:52;;;;;;;7.37;6.77;;;;;;;22.88;100.00;96694.31;5051064;27;105543;-64
2022/07/24 06:38:21;;;;;;;7.07;6.53;;;;;;;23.14;100.00;96695.06;5033711;27;105506;-63
2022/07/24 06:40:49;;;;;;;7.47;6.80;;;;;;;23.28;100.00;96692.22;5030932;28;102019;-63
2022/07/24 06:43:19;;;;;;;8.23;6.30;;;;;;;23.01;100.00;96693.38;5030993;28;105210;-63
2022/07/24 06:45:45;;;;;;;7.67;6.97;;;;;;;23.32;100.00;96693.16;5045603;27;106623;-63
2022/07/24 06:48:13;;;;;;;7.80;7.10;;;;;;;23.61;100.00;96690.50;5052634;27;101851;-63
2022/07/24 06:50:40;;;;;;;6.77;6.23;;;;;;;23.65;100.00;96689.50;5051168;27;105491;-63
2022/07/24 06:53:48;;;;;;;7.17;6.47;;;;;;;23.43;100.00;96695.19;5051759;27;103464;-63
2022/07/24 06:56:33;;;;;;;7.23;6.53;;;;;;;23.52;100.00;96693.25;5054428;27;101995;-63
2022/07/24 06:59:00;;;;;;;7.43;6.77;;;;;;;23.35;100.00;96693.31;5051523;27;103255;-63
2022/07/24 07:01:27;;;;;;;7.20;6.60;;;;;;;23.61;100.00;96691.31;5038168;27;101883;-63
2022/07/24 07:04:07;;;;;;;7.00;6.40;;;;;;;23.86;100.00;96690.38;5052350;27;102917;-64
2022/07/24 07:06:34;;;;;;;6.90;6.30;;;;;;;23.76;100.00;96695.41;5031464;27;102586;-63
2022/07/24 07:09:01;;;;;;;7.27;6.67;;;;;;;23.95;100.00;96703.94;5030351;28;101918;-63
2022/07/24 07:11:28;;;;;;;7.43;6.80;;;;;;;23.98;100.00;96692.44;5032005;28;102254;-63
2022/07/24 07:14:03;;;;;;;7.00;6.33;;;;;;;23.94;100.00;96699.66;5030665;27;101986;-63
2022/07/24 07:16:30;;;;;;;7.07;6.47;;;;;;;24.15;100.00;96700.50;5030465;28;101727;-63
2022/07/24 07:18:57;;;;;;;7.17;6.57;;;;;;;23.92;100.00;96693.75;5041180;27;105578;-63
2022/07/24 07:21:24;;;;;;;7.13;6.40;;;;;;;23.99;100.00;96694.84;5052103;27;101857;-63
2022/07/24 07:24:15;;;;;;;7.23;6.63;;;;;;;24.01;100.00;96691.75;5050473;27;106501;-63
2022/07/24 07:26:49;;;;;;;6.90;6.40;;;;;;;24.57;100.00;96702.13;5051455;27;102745;-64
2022/07/24 07:29:18;;;;;;;6.97;6.37;;;;;;;24.34;100.00;96698.94;5051731;27;103316;-63
2022/07/24 07:31:45;;;;;;;7.10;6.53;;;;;;;24.34;100.00;96698.13;5050218;27;105846;-63
2022/07/24 07:34:14;;;;;;;7.00;6.40;;;;;;;24.63;100.00;96696.16;5051309;27;102586;-63
2022/07/24 07:36:41;;;;;;;6.97;6.47;;;;;;;24.71;100.00;96697.25;5050293;27;101981;-63
2022/07/24 07:39:08;;;;;;;7.67;7.00;;;;;;;24.59;100.00;96695.28;5051550;27;101704;-63
2022/07/24 07:41:35;;;;;;;6.83;6.23;;;;;;;24.89;100.00;96701.41;5052911;27;101920;-63
2022/07/24 07:44:07;;;;;;;7.80;7.00;;;;;;;24.88;100.00;96694.38;5051661;27;102423;-63
2022/07/24 07:46:36;;;;;;;7.57;6.90;;;;;;;25.23;100.00;96695.66;5029251;28;105431;-63
2022/07/24 07:49:03;;;;;;;7.27;6.63;;;;;;;25.46;100.00;96702.31;5029973;28;101991;-63
2022/07/24 07:51:30;;;;;;;7.43;6.80;;;;;;;25.36;100.00;96700.81;5029763;28;105772;-63
2022/07/24 07:54:07;;;;;;;6.67;6.27;;;;;;;25.69;100.00;96706.19;5030710;27;102733;-63
2022/07/24 07:56:56;;;;;;;7.03;6.43;;;;;;;25.68;100.00;96699.16;5029700;28;102041;-63
2022/07/24 07:59:24;;;;;;;7.57;6.90;;;;;;;25.96;100.00;96694.66;5031253;28;102504;-63
2022/07/24 08:01:52;;;;;;;8.00;7.30;;;;;;;25.80;100.00;96696.44;5032502;28;103691;-63
2022/07/24 08:04:21;;;;;;;7.43;6.73;;;;;;;25.85;100.00;96699.75;5029634;28;105306;-63
2022/07/24 08:06:48;;;;;;;7.97;7.20;;;;;;;26.03;100.00;96692.97;5029625;27;103180;-63
2022/07/24 08:09:15;;;;;;;7.17;6.57;;;;;;;26.49;100.00;96700.63;5030830;28;102117;-63
2022/07/24 08:11:42;;;;;;;6.93;6.40;;;;;;;26.24;100.00;96698.28;5029711;28;102358;-63
2022/07/24 08:14:15;;;;;;;6.97;6.37;;;;;;;26.57;100.00;96707.13;5031208;27;102605;-63
2022/07/24 08:16:42;;;;;;;7.03;6.47;;;;;;;26.28;100.00;96704.66;5050100;27;101894;-63
2022/07/24 08:19:11;;;;;;;7.60;6.90;;;;;;;26.82;100.00;96697.75;5050188;27;102805;-64
2022/07/24 08:21:38;;;;;;;7.80;7.13;;;;;;;26.67;100.00;96699.28;5048478;27;106106;-63
2022/07/24 08:24:48;;;;;;;7.10;6.40;;;;;;;25.91;100.00;96692.16;5054031;27;102038;-63
2022/07/24 08:27:39;;;;;;;6.80;6.20;;;;;;;26.83;100.00;96697.41;5049070;27;106059;-63
2022/07/24 08:30:08;;;;;;;6.80;6.30;;;;;;;26.71;100.00;96691.19;5051082;27;101676;-63
2022/07/24 08:32:35;;;;;;;7.10;6.50;;;;;;;26.61;100.00;96697.13;5050764;27;102262;-64
2022/07/24 08:35:25;;;;;;;6.90;6.30;;;;;;;26.26;100.00;96693.31;5041654;27;102633;-63
2022/07/24 08:37:52;;;;;;;7.50;6.80;;;;;;;26.81;100.00;96698.91;5030360;28;101784;-63
2022/07/24 08:40:19;;;;;;;6.60;6.10;;;;;;;26.93;100.00;96693.38;5029024;28;103723;-63
2022/07/24 08:42:46;;;;;;;7.17;6.47;;;;;;;27.31;100.00;96688.22;5036496;27;104793;-64
2022/07/24 08:45:15;;;;;;;6.73;6.23;;;;;;;27.48;100.00;96685.16;5049446;27;101955;-63
2022/07/24 08:47:43;;;;;;;7.67;7.07;;;;;;;26.71;100.00;96693.91;5052073;27;105068;-63
2022/07/24 08:50:11;;;;;;;7.87;7.17;;;;;;;26.96;100.00;96684.47;5050518;27;101826;-63
2022/07/24 08:52:42;;;;;;;6.73;6.23;;;;;;;27.59;100.00;96687.03;5050553;27;102487;-63
2022/07/24 08:55:10;;;;;;;6.80;6.23;;;;;;;28.14;100.00;96688.81;5048467;27;105973;-63
2022/07/24 08:57:43;;;;;;;7.20;6.50;;;;;;;28.23;100.00;96694.88;5050507;27;101934;-63
2022/07/24 09:00:11;;;;;;;7.37;6.77;;;;;;;27.40;100.00;96694.34;5049047;27;105733;-63
2022/07/24 09:02:39;;;;;;;6.90;6.30;;;;;;;27.97;100.00;96694.66;5048710;27;105507;-64
2022/07/24 09:05:07;;;;;;;7.10;6.57;;;;;;;28.38;100.00;96691.38;5045265;27;101869;-64
2022/07/24 09:07:34;;;;;;;7.17;6.47;;;;;;;28.65;100.00;96679.44;5030385;27;102301;-63
2022/07/24 09:10:06;;;;;;;6.70;6.10;;;;;;;28.56;100.00;96690.59;5032811;28;102693;-64
2022/07/24 09:12:35;;;;;;;7.60;6.87;;;;;;;28.28;100.00;96692.66;5028869;28;103858;-63
2022/07/24 09:15:49;;;;;;;8.07;7.40;;;;;;;27.38;100.00;96688.41;5028015;28;105863;-63
2022/07/24 09:18:28;;;;;;;7.73;7.03;;;;;;;27.78;100.00;96691.81;5029853;28;101973;-63
2022/07/24 09:20:56;;;;;;;7.37;6.67;;;;;;;28.39;100.00;96688.25;5028713;28;105319;-63
2022/07/24 09:23:37;;;;;;;8.10;6.87;;;;;;;28.08;100.00;96688.28;5027967;28;103843;-64
2022/07/24 09:26:43;;;;;;;7.13;6.53;;;;;;;27.96;100.00;96684.88;5041059;27;101970;-63
2022/07/24 09:29:12;;;;;;;7.63;7.03;;;;;;;28.16;100.00;96683.78;5048062;27;105300;-63
2022/07/24 09:31:54;;;;;;;7.47;6.33;;;;;;;28.66;100.00;96686.50;5049343;27;102036;-63
2022/07/24 09:34:24;;;;;;;7.03;6.43;;;;;;;29.45;100.00;96685.75;5053716;27;101755;-63
2022/07/24 09:36:57;;;;;;;7.37;6.77;;;;;;;29.60;100.00;96687.66;5049915;27;105062;-64
2022/07/24 09:39:25;;;;;;;6.40;5.90;;;;;;;29.59;100.00;96675.09;5052225;27;101819;-63
2022/07/24 09:41:56;;;;;;;7.15;6.55;;;;;;;28.62;100.00;96669.22;5052213;27;105262;-63
2022/07/24 09:44:36;;;;;;;6.32;5.82;;;;;;;29.29;100.00;96663.97;5052578;27;102043;-63
2022/07/24 09:47:06;;;;;;;7.18;6.50;;;;;;;29.96;100.00;96673.38;5053576;27;101983;-63
2022/07/24 09:49:34;;;;;;;6.78;6.10;;;;;;;30.00;97.04;96668.72;5053286;27;103709;-63
2022/07/24 09:52:15;;;;;;;6.85;6.30;;;;;;;30.56;94.68;96664.13;5052619;27;102752;-64
2022/07/24 09:54:55;;;;;;;6.30;5.80;;;;;;;30.19;94.96;96663.19;5055362;27;101791;-64
2022/07/24 09:57:33;;;;;;;6.35;5.80;;;;;;;30.11;100.00;96653.25;5051368;27;105772;-63
2022/07/24 10:00:02;;;;;;;7.10;6.40;;;;;;;30.59;97.72;96657.88;5051856;27;101939;-63
2022/07/24 10:02:33;;;;;;;6.93;6.32;;;;;;;31.15;90.79;96653.09;5049998;27;102108;-64
2022/07/24 10:05:04;;;;;;;7.03;6.50;;;;;;;31.35;83.83;96652.59;5052598;27;102707;-64
2022/07/24 10:07:32;;;;;;;6.88;6.38;;;;;;;31.45;88.12;96651.09;5050681;27;101813;-64
2022/07/24 10:10:01;;;;;;;6.70;6.20;;;;;;;31.50;83.60;96656.25;5052732;27;102758;-64
2022/07/24 10:12:31;;;;;;;7.05;6.45;;;;;;;31.71;83.00;96651.72;5050844;27;105559;-64
2022/07/24 10:15:17;;;;;;;6.70;6.18;;;;;;;31.75;75.53;96649.03;5051362;27;101950;-64
2022/07/24 10:18:16;;;;;;;6.57;6.07;;;;;;;32.03;71.01;96639.06;5056144;27;102629;-63
2022/07/24 10:20:44;;;;;;;7.28;6.57;;;;;;;31.82;65.17;96644.41;5032825;27;101825;-64
2022/07/24 10:23:24;;;;;;;6.20;5.70;;;;;;;31.62;79.48;96639.47;5031310;27;106701;-64
2022/07/24 10:26:34;;;;;;;6.88;6.28;;;;;;;31.92;69.89;96634.66;5032088;28;103071;-64
2022/07/24 10:29:09;;;;;;;6.75;6.25;;;;;;;32.00;65.10;96631.59;5031076;28;101885;-64
2022/07/24 10:31:41;;;;;;;7.47;6.75;;;;;;;32.46;61.46;96638.19;5032310;28;102909;-64
2022/07/24 10:34:26;;;;;;;6.70;6.20;;;;;;;32.56;59.75;96633.91;5043151;27;102532;-64
2022/07/24 10:37:00;;;;;;;7.30;6.70;;;;;;;32.85;59.78;96635.69;5032370;28;101852;-64
2022/07/24 10:39:32;;;;;;;5.90;5.43;;;;;;;32.48;55.35;96637.81;5032618;28;102302;-63
2022/07/24 10:42:04;;;;;;;5.88;5.40;;;;;;;32.24;53.00;96639.22;5033868;28;105520;-64
2022/07/24 10:45:20;;;;;;;6.07;5.55;;;;;;;32.43;57.37;96629.91;5033278;27;105463;-64
2022/07/24 10:47:48;;;;;;;6.45;5.57;;;;;;;29.63;69.79;96626.59;5049306;27;105764;-64
2022/07/24 10:50:16;;;;;;;5.57;5.07;;;;;;;30.92;64.15;96617.53;5030801;28;101888;-64
2022/07/24 10:52:43;;;;;;;8.10;7.43;;;;;;;31.60;73.40;96622.56;5032144;28;102373;-64
2022/07/24 10:55:25;;;;;;;6.53;5.90;;;;;;;30.03;67.10;96626.84;5031357;28;103091;-64
2022/07/24 10:58:34;;;;;;;7.40;6.80;;;;;;;31.21;66.00;96624.13;5032034;28;101823;-64
2022/07/24 11:01:01;;;;;;;6.68;5.75;;;;;;;31.53;64.25;96617.78;5030656;28;105433;-64
2022/07/24 11:04:12;;;;;;;5.97;5.53;;;;;;;31.99;78.60;96620.97;5031506;28;103049;-64
2022/07/24 11:06:44;;;;;;;6.70;6.10;;;;;;;30.29;79.61;96615.91;5034200;28;101980;-64
2022/07/24 11:09:12;;;;;;;14.10;12.80;;;;;;;31.65;81.39;96611.22;5031417;28;102567;-64
2022/07/24 11:11:44;;;;;;;6.95;6.32;;;;;;;29.97;87.01;96622.84;5029500;28;101808;-64
2022/07/24 11:14:23;;;;;;;6.95;6.28;;;;;;;30.38;79.60;96610.91;5030540;28;105663;-64
2022/07/24 11:16:51;;;;;;;6.47;5.93;;;;;;;30.19;80.66;96614.56;5050161;27;102631;-64
2022/07/24 11:19:31;;;;;;;7.00;6.40;;;;;;;31.42;73.71;96605.91;5052174;27;101887;-64
2022/07/24 11:22:39;;;;;;;6.50;5.85;;;;;;;31.39;70.01;96601.16;5031724;28;102324;-64
2022/07/24 11:25:08;;;;;;;6.90;6.20;;;;;;;32.27;60.44;96608.22;5029537;27;105534;-64
2022/07/24 11:27:52;;;;;;;6.40;5.90;;;;;;;32.65;53.83;96604.06;5030324;28;102114;-64
2022/07/24 11:30:20;;;;;;;5.90;5.50;;;;;;;31.10;52.15;96603.97;5034411;28;102321;-64
2022/07/24 11:32:57;;;;;;;6.25;5.75;;;;;;;32.13;52.81;96594.31;5030983;28;101775;-64
2022/07/24 11:35:33;;;;;;;8.45;7.85;;;;;;;33.15;54.83;96605.84;5031737;27;102442;-64
2022/07/24 11:38:04;;;;;;;6.22;5.72;;;;;;;33.11;50.11;96599.50;5030849;28;101906;-64
2022/07/24 11:40:33;;;;;;;13.27;11.90;;;;;;;33.40;50.96;96595.69;5031576;28;101988;-64
2022/07/24 11:43:35;;;;;;;43.65;39.20;;;;;;;33.92;49.19;96594.91;5029009;28;105344;-64
2022/07/24 11:46:02;;;;;;;163.00;146.65;;;;;;;33.83;49.30;96598.06;5030140;28;102685;-64
2022/07/24 11:48:29;;;;;;;266.95;238.23;;;;;;;34.15;48.85;96593.31;5029509;28;101742;-64
2022/07/24 11:51:04;;;;;;;246.50;220.30;;;;;;;34.50;46.43;96584.19;5029011;28;104064;-64
2022/07/24 11:53:34;;;;;;;118.53;106.10;;;;;;;34.62;44.27;96583.75;5030938;28;104326;-64
2022/07/24 11:56:04;;;;;;;147.63;132.52;;;;;;;34.91;44.06;96583.25;5029233;27;102465;-64
2022/07/24 11:58:39;;;;;;;10.95;9.88;;;;;;;34.65;46.83;96577.44;5029075;28;101842;-63
2022/07/24 12:01:20;;;;;;;39.65;35.67;;;;;;;35.40;43.24;96584.94;5029877;28;101970;-64